createdAt,value
2023-04-08T00:00:27.701Z,23.77
2023-04-08T00:02:54.221Z,27.33
2023-04-08T00:05:20.865Z,28.97
2023-04-08T00:07:47.254Z,27.07
2023-04-08T00:10:13.571Z,28.73
2023-04-08T00:12:40.262Z,25.57
2023-04-08T00:15:06.849Z,34.50
2023-04-08T00:17:33.389Z,34.00
2023-04-08T00:20:00.174Z,29.37
2023-04-08T00:22:26.602Z,33.53
2023-04-08T00:24:52.939Z,27.70
2023-04-08T00:27:19.349Z,30.53
2023-04-08T00:29:46.530Z,30.23
2023-04-08T00:32:13.123Z,28.70
2023-04-08T00:34:39.463Z,28.00
2023-04-08T00:37:07.068Z,30.00
2023-04-08T00:39:33.477Z,27.40
2023-04-08T00:41:59.887Z,30.77
2023-04-08T00:44:26.371Z,29.87
2023-04-08T00:46:52.778Z,28.50
2023-04-08T00:49:19.546Z,29.77
2023-04-08T00:51:45.976Z,28.43
2023-04-08T00:54:12.328Z,29.33
2023-04-08T00:56:38.791Z,29.07
2023-04-08T00:59:05.309Z,31.53
2023-04-08T01:01:51.849Z,30.27
2023-04-08T01:04:37.436Z,29.00
2023-04-08T01:07:12.006Z,31.43
2023-04-08T01:09:39.496Z,26.60
2023-04-08T01:12:07.727Z,29.43
2023-04-08T01:14:38.575Z,27.00
2023-04-08T01:17:05.702Z,30.40
2023-04-08T01:19:34.490Z,28.03
2023-04-08T01:22:10.713Z,31.60
2023-04-08T01:24:40.240Z,27.70
2023-04-08T01:27:07.701Z,28.67
2023-04-08T01:29:34.798Z,27.03
2023-04-08T01:32:02.056Z,28.23
2023-04-08T01:34:29.689Z,28.87
2023-04-08T01:36:58.583Z,25.53
2023-04-08T01:39:25.984Z,28.60
2023-04-08T01:41:53.679Z,26.20
2023-04-08T01:44:21.505Z,29.70
2023-04-08T01:46:48.910Z,28.63
2023-04-08T01:49:16.076Z,27.17
2023-04-08T01:51:43.303Z,26.90
2023-04-08T01:54:09.709Z,33.93
2023-04-08T01:56:37.797Z,31.67
2023-04-08T01:59:06.989Z,29.17
2023-04-08T02:01:37.006Z,28.90
2023-04-08T02:04:03.912Z,30.07
2023-04-08T02:06:31.174Z,26.23
2023-04-08T02:08:57.591Z,28.93
2023-04-08T02:11:25.101Z,25.27
2023-04-08T02:13:51.527Z,30.37
2023-04-08T02:16:35.374Z,25.90
2023-04-08T02:19:22.792Z,27.50
2023-04-08T02:21:52.496Z,28.53
2023-04-08T02:24:18.991Z,30.60
2023-04-08T02:26:46.262Z,28.43
2023-04-08T02:29:15.628Z,29.47
2023-04-08T02:31:43.404Z,30.80
2023-04-08T02:34:10.565Z,30.97
2023-04-08T02:36:37.450Z,28.80
2023-04-08T02:39:03.978Z,25.13
2023-04-08T02:41:31.447Z,38.13
2023-04-08T02:43:58.043Z,30.67
2023-04-08T02:46:24.549Z,29.10
2023-04-08T02:48:51.095Z,26.17
2023-04-08T02:51:17.672Z,28.40
2023-04-08T02:53:44.082Z,31.07
2023-04-08T02:56:11.102Z,29.03
2023-04-08T02:58:37.568Z,32.10
2023-04-08T03:01:03.975Z,26.53
2023-04-08T03:03:31.386Z,28.90
2023-04-08T03:05:58.295Z,25.13
2023-04-08T03:08:24.896Z,28.57
2023-04-08T03:10:51.561Z,22.37
2023-04-08T03:13:17.955Z,31.77
2023-04-08T03:15:44.375Z,27.73
2023-04-08T03:18:10.764Z,30.33
2023-04-08T03:20:37.142Z,29.60
2023-04-08T03:23:03.561Z,29.47
2023-04-08T03:25:35.053Z,25.43
2023-04-08T03:28:06.651Z,23.53
2023-04-08T03:30:34.379Z,27.47
2023-04-08T03:33:01.621Z,28.10
2023-04-08T03:35:28.482Z,24.70
2023-04-08T03:37:55.666Z,27.23
2023-04-08T03:40:22.149Z,24.27
2023-04-08T03:42:48.517Z,23.90
2023-04-08T03:45:14.838Z,27.13
2023-04-08T03:47:41.429Z,27.97
2023-04-08T03:50:07.989Z,25.63
2023-04-08T03:52:34.520Z,26.50
2023-04-08T03:55:00.946Z,28.83
2023-04-08T03:57:27.452Z,26.67
2023-04-08T03:59:53.894Z,25.33
2023-04-08T04:02:20.487Z,26.93
2023-04-08T04:04:47.003Z,23.60
2023-04-08T04:07:13.335Z,23.03
2023-04-08T04:09:39.664Z,23.87
2023-04-08T04:12:06.057Z,26.83
2023-04-08T04:14:32.537Z,32.53
2023-04-08T04:16:58.872Z,29.40
2023-04-08T04:19:25.386Z,34.13
2023-04-08T04:21:52.747Z,32.87
2023-04-08T04:24:19.163Z,29.37
2023-04-08T04:26:45.706Z,31.20
2023-04-08T04:29:12.085Z,40.00
2023-04-08T04:31:38.553Z,33.93
2023-04-08T04:34:05.039Z,38.13
2023-04-08T04:36:34.505Z,41.90
2023-04-08T04:39:01.514Z,23.90
2023-04-08T04:41:30.659Z,27.60
2023-04-08T04:43:57.038Z,28.93
2023-04-08T04:46:23.471Z,17.00
2023-04-08T04:48:50.133Z,18.87
2023-04-08T04:51:16.708Z,13.63
2023-04-08T04:53:43.106Z,19.90
2023-04-08T04:56:11.548Z,10.83
2023-04-08T04:58:38.029Z,13.63
2023-04-08T05:01:04.450Z,10.70
2023-04-08T05:03:31.389Z,10.07
2023-04-08T05:05:57.752Z,14.03
2023-04-08T05:08:25.871Z,13.20
2023-04-08T05:10:55.667Z,10.17
2023-04-08T05:13:22.986Z,14.80
2023-04-08T05:15:49.351Z,13.23
2023-04-08T05:18:16.147Z,10.23
2023-04-08T05:20:42.644Z,10.57
2023-04-08T05:23:09.150Z,11.53
2023-04-08T05:25:35.698Z,16.00
2023-04-08T05:28:02.210Z,9.10
2023-04-08T05:30:28.554Z,9.17
2023-04-08T05:32:55.176Z,25.57
2023-04-08T05:35:22.160Z,20.90
2023-04-08T05:37:48.487Z,18.90
2023-04-08T05:40:14.922Z,17.20
2023-04-08T05:42:42.702Z,17.20
2023-04-08T05:45:09.216Z,16.23
2023-04-08T05:47:35.597Z,25.03
2023-04-08T05:50:02.007Z,23.77
2023-04-08T05:52:28.483Z,14.50
2023-04-08T05:54:54.799Z,15.33
2023-04-08T05:57:21.296Z,16.83
2023-04-08T05:59:47.637Z,13.00
2023-04-08T06:02:14.127Z,18.47
2023-04-08T06:04:40.698Z,12.00
2023-04-08T06:07:08.458Z,17.67
2023-04-08T06:09:35.229Z,16.73
2023-04-08T06:12:01.655Z,19.57
2023-04-08T06:14:28.192Z,13.30
2023-04-08T06:16:57.339Z,16.60
2023-04-08T06:19:24.816Z,11.97
2023-04-08T06:21:51.574Z,13.37
2023-04-08T06:24:17.954Z,17.63
2023-04-08T06:26:45.658Z,21.23
2023-04-08T06:29:12.015Z,13.00
2023-04-08T06:31:38.487Z,17.10
2023-04-08T06:34:04.910Z,15.83
2023-04-08T06:36:31.638Z,16.60
2023-04-08T06:38:58.068Z,16.07
2023-04-08T06:41:26.527Z,19.83
2023-04-08T06:43:52.856Z,19.37
2023-04-08T06:46:19.440Z,17.13
2023-04-08T06:48:45.855Z,21.87
2023-04-08T06:51:13.362Z,24.33
2023-04-08T06:53:39.948Z,21.03
2023-04-08T06:56:06.932Z,19.77
2023-04-08T06:58:33.420Z,22.87
2023-04-08T07:00:59.980Z,19.93
2023-04-08T07:03:26.953Z,22.50
2023-04-08T07:05:53.612Z,27.37
2023-04-08T07:08:19.965Z,23.07
2023-04-08T07:10:46.284Z,29.30
2023-04-08T07:13:13.209Z,19.63
2023-04-08T07:15:39.540Z,19.33
2023-04-08T07:18:06.173Z,27.37
2023-04-08T07:20:32.647Z,24.33
2023-04-08T07:22:58.962Z,23.10
2023-04-08T07:25:25.393Z,23.47
2023-04-08T07:27:52.998Z,27.43
2023-04-08T07:30:19.611Z,24.30
2023-04-08T07:32:46.440Z,22.77
2023-04-08T07:35:12.784Z,28.20
2023-04-08T07:37:39.105Z,29.57
2023-04-08T07:40:05.952Z,26.23
2023-04-08T07:42:32.380Z,27.13
2023-04-08T07:44:58.814Z,29.70
2023-04-08T07:47:25.369Z,28.37
2023-04-08T07:49:51.770Z,27.47
2023-04-08T07:52:21.262Z,26.73
2023-04-08T07:54:47.629Z,30.60
2023-04-08T07:57:14.043Z,31.43
2023-04-08T07:59:40.781Z,28.50
2023-04-08T08:02:07.207Z,35.27
2023-04-08T08:04:34.427Z,33.97
2023-04-08T08:07:01.081Z,27.60
2023-04-08T08:09:27.599Z,30.57
2023-04-08T08:11:54.004Z,30.23
2023-04-08T08:14:20.543Z,31.07
2023-04-08T08:16:49.727Z,29.57
2023-04-08T08:19:17.154Z,28.80
2023-04-08T08:21:43.665Z,25.73
2023-04-08T08:24:10.079Z,28.57
2023-04-08T08:26:39.415Z,24.70
2023-04-08T08:29:08.525Z,23.83
2023-04-08T08:31:35.431Z,23.83
2023-04-08T08:34:01.901Z,24.70
2023-04-08T08:36:28.698Z,26.00
2023-04-08T08:38:55.107Z,27.17
2023-04-08T08:41:22.740Z,23.33
2023-04-08T08:43:49.565Z,24.43
2023-04-08T08:46:17.550Z,22.10
2023-04-08T08:48:44.220Z,24.37
2023-04-08T08:51:11.021Z,22.43
2023-04-08T08:53:37.732Z,24.07
2023-04-08T08:56:17.809Z,22.20
2023-04-08T08:58:45.122Z,21.13
2023-04-08T09:01:31.225Z,19.87
2023-04-08T09:04:07.784Z,18.47
2023-04-08T09:06:34.650Z,18.90
2023-04-08T09:09:02.750Z,17.30
2023-04-08T09:11:30.324Z,20.43
2023-04-08T09:13:58.853Z,16.60
2023-04-08T09:16:25.709Z,19.10
2023-04-08T09:18:53.405Z,19.87
2023-04-08T09:21:22.436Z,17.83
2023-04-08T09:23:52.697Z,18.03
2023-04-08T09:26:22.276Z,15.27
2023-04-08T09:29:25.436Z,17.73
2023-04-08T09:31:56.298Z,15.83
2023-04-08T09:34:23.549Z,14.80
2023-04-08T09:36:53.682Z,15.63
2023-04-08T09:39:20.537Z,14.87
2023-04-08T09:41:51.079Z,12.43
2023-04-08T09:47:12.775Z,12.53
2023-04-08T09:51:28.853Z,13.97
2023-04-08T09:57:12.307Z,14.07
2023-04-08T10:01:54.213Z,12.90
2023-04-08T10:07:14.212Z,13.07
2023-04-08T10:09:45.233Z,12.77
2023-04-08T10:12:13.652Z,14.43
2023-04-08T10:14:39.993Z,13.00
2023-04-08T10:17:45.056Z,12.53
2023-04-08T10:20:30.958Z,12.73
2023-04-08T10:22:57.324Z,13.83
2023-04-08T10:25:30.424Z,11.70
2023-04-08T10:27:56.935Z,10.07
2023-04-08T10:30:26.669Z,11.30
2023-04-08T10:32:56.937Z,12.27
2023-04-08T10:35:36.499Z,12.83
2023-04-08T10:38:03.566Z,10.87
2023-04-08T10:40:36.358Z,10.40
2023-04-08T10:43:04.031Z,12.13
2023-04-08T10:45:30.519Z,10.37
2023-04-08T10:47:57.055Z,12.63
2023-04-08T10:50:24.012Z,11.23
2023-04-08T10:52:52.095Z,13.87
2023-04-08T10:55:26.025Z,14.20
2023-04-08T10:57:52.814Z,9.37
2023-04-08T11:00:20.192Z,11.77
2023-04-08T11:02:46.724Z,8.90
2023-04-08T11:05:13.360Z,12.87
2023-04-08T11:07:40.208Z,10.27
2023-04-08T11:10:07.287Z,9.83
2023-04-08T11:12:34.513Z,13.53
2023-04-08T11:15:01.535Z,9.83
2023-04-08T11:17:28.076Z,14.13
2023-04-08T11:19:54.704Z,12.80
2023-04-08T11:22:21.139Z,13.37
2023-04-08T11:24:47.604Z,12.97
2023-04-08T11:27:15.767Z,11.20
2023-04-08T11:29:43.225Z,15.90
2023-04-08T11:32:09.555Z,12.73
2023-04-08T11:34:39.301Z,13.23
2023-04-08T11:37:05.678Z,12.93
2023-04-08T11:39:32.109Z,14.13
2023-04-08T11:41:58.573Z,10.73
2023-04-08T11:44:32.067Z,14.07
2023-04-08T11:46:58.777Z,10.73
2023-04-08T11:49:27.971Z,13.33
2023-04-08T11:51:59.151Z,12.40
2023-04-08T11:54:27.044Z,12.70
2023-04-08T11:56:53.749Z,15.20
2023-04-08T11:59:20.159Z,13.23
2023-04-08T12:01:46.912Z,11.03
2023-04-08T12:04:13.720Z,11.03
2023-04-08T12:06:43.388Z,13.50
2023-04-08T12:09:10.808Z,11.60
2023-04-08T12:11:37.154Z,14.03
2023-04-08T12:14:03.761Z,10.53
2023-04-08T12:16:30.168Z,11.20
2023-04-08T12:18:56.502Z,9.93
2023-04-08T12:21:22.894Z,11.10
2023-04-08T12:23:49.520Z,14.43
2023-04-08T12:26:16.077Z,10.67
2023-04-08T12:28:42.577Z,10.20
2023-04-08T12:31:09.021Z,11.60
2023-04-08T12:33:35.448Z,13.20
2023-04-08T12:36:01.895Z,7.67
2023-04-08T12:38:28.466Z,10.83
2023-04-08T12:40:56.179Z,10.47
2023-04-08T12:43:23.813Z,11.93
2023-04-08T12:45:50.402Z,10.30
2023-04-08T12:48:16.913Z,11.17
2023-04-08T12:50:43.339Z,9.80
2023-04-08T12:53:11.091Z,10.30
2023-04-08T12:55:37.641Z,10.13
2023-04-08T12:58:04.021Z,11.27
2023-04-08T13:00:30.372Z,13.10
2023-04-08T13:02:56.914Z,14.60
2023-04-08T13:05:39.615Z,11.97
2023-04-08T13:08:09.618Z,12.20
2023-04-08T13:10:36.081Z,11.83
2023-04-08T13:13:02.778Z,9.37
2023-04-08T13:15:29.253Z,11.70
2023-04-08T13:17:58.726Z,13.67
2023-04-08T13:20:26.246Z,12.10
2023-04-08T13:22:53.080Z,12.43
2023-04-08T13:25:19.542Z,14.23
2023-04-08T13:27:46.045Z,12.30
2023-04-08T13:30:12.650Z,11.27
2023-04-08T13:32:39.098Z,10.70
2023-04-08T13:35:05.805Z,11.90
2023-04-08T13:37:32.264Z,12.77
2023-04-08T13:39:58.606Z,14.27
2023-04-08T13:42:25.061Z,13.57
2023-04-08T13:44:51.470Z,13.53
2023-04-08T13:47:18.264Z,11.27
2023-04-08T13:49:44.748Z,13.00
2023-04-08T13:52:11.414Z,13.67
2023-04-08T13:54:37.842Z,10.67
2023-04-08T13:57:04.234Z,11.90
2023-04-08T13:59:30.537Z,11.90
2023-04-08T14:01:57.050Z,13.63
2023-04-08T14:04:23.845Z,13.90
2023-04-08T14:06:51.436Z,12.07
2023-04-08T14:09:18.088Z,12.00
2023-04-08T14:11:44.505Z,15.83
2023-04-08T14:14:11.045Z,13.97
2023-04-08T14:16:37.637Z,11.90
2023-04-08T14:19:05.043Z,13.40
2023-04-08T14:21:34.195Z,12.00
2023-04-08T14:24:02.552Z,13.50
2023-04-08T14:26:29.357Z,11.83
2023-04-08T14:28:55.893Z,14.23
2023-04-08T14:31:22.428Z,13.27
2023-04-08T14:33:48.973Z,14.93
2023-04-08T14:36:16.724Z,15.57
2023-04-08T14:38:43.313Z,11.20
2023-04-08T14:41:10.300Z,14.77
2023-04-08T14:43:36.659Z,14.07
2023-04-08T14:46:03.044Z,16.13
2023-04-08T14:48:30.734Z,15.07
2023-04-08T14:50:57.489Z,16.10
2023-04-08T14:53:23.933Z,14.87
2023-04-08T14:55:50.308Z,13.83
2023-04-08T14:58:16.729Z,17.40
2023-04-08T15:00:45.281Z,14.37
2023-04-08T15:03:11.718Z,13.80
2023-04-08T15:05:38.554Z,16.87
2023-04-08T15:08:05.281Z,19.07
2023-04-08T15:10:32.093Z,13.93
2023-04-08T15:12:58.527Z,15.43
2023-04-08T15:15:24.889Z,17.80
2023-04-08T15:17:52.334Z,20.23
2023-04-08T15:20:20.201Z,18.87
2023-04-08T15:22:46.811Z,16.80
2023-04-08T15:25:13.272Z,21.67
2023-04-08T15:27:39.638Z,13.63
2023-04-08T15:30:06.510Z,18.60
2023-04-08T15:32:33.194Z,14.23
2023-04-08T15:34:59.901Z,13.77
2023-04-08T15:37:29.477Z,13.03
2023-04-08T15:39:55.926Z,18.07
2023-04-08T15:42:22.769Z,15.87
2023-04-08T15:44:49.243Z,14.57
2023-04-08T15:47:16.225Z,23.03
2023-04-08T15:49:43.230Z,14.40
2023-04-08T15:52:09.646Z,14.97
2023-04-08T15:54:36.011Z,14.80
2023-04-08T15:57:05.314Z,12.70
2023-04-08T15:59:32.444Z,13.97
2023-04-08T16:01:59.039Z,11.47
2023-04-08T16:04:26.199Z,11.77
2023-04-08T16:06:52.586Z,15.13
2023-04-08T16:09:22.636Z,11.40
2023-04-08T16:11:49.091Z,11.17
2023-04-08T16:14:15.789Z,12.90
2023-04-08T16:16:43.170Z,13.03
2023-04-08T16:19:10.604Z,13.17
2023-04-08T16:21:37.128Z,13.37
2023-04-08T16:24:05.226Z,12.53
2023-04-08T16:26:31.666Z,15.30
2023-04-08T16:28:58.062Z,11.33
2023-04-08T16:31:24.593Z,12.90
2023-04-08T16:33:51.055Z,13.57
2023-04-08T16:36:18.863Z,16.10
2023-04-08T16:38:45.423Z,16.90
2023-04-08T16:41:11.849Z,16.93
2023-04-08T16:43:38.843Z,17.10
2023-04-08T16:46:12.387Z,17.73
2023-04-08T16:48:39.428Z,16.40
2023-04-08T16:51:06.133Z,18.70
2023-04-08T16:53:32.524Z,17.70
2023-04-08T16:55:59.032Z,15.10
2023-04-08T16:58:28.452Z,17.93
2023-04-08T17:00:57.085Z,17.03
2023-04-08T17:03:23.565Z,17.63
2023-04-08T17:05:50.517Z,17.63
2023-04-08T17:08:18.705Z,15.40
2023-04-08T17:10:49.648Z,15.70
2023-04-08T17:13:16.425Z,18.83
2023-04-08T17:15:42.893Z,15.53
2023-04-08T17:18:09.247Z,15.60
2023-04-08T17:20:36.156Z,15.73
2023-04-08T17:23:03.008Z,16.33
2023-04-08T17:25:29.335Z,14.57
2023-04-08T17:27:55.803Z,15.00
2023-04-08T17:30:22.264Z,13.83
2023-04-08T17:32:48.947Z,19.13
2023-04-08T17:35:15.399Z,14.77
2023-04-08T17:37:41.807Z,14.83
2023-04-08T17:40:08.501Z,15.53
2023-04-08T17:42:34.819Z,12.50
2023-04-08T17:45:02.750Z,14.37
2023-04-08T17:47:29.109Z,12.63
2023-04-08T17:49:56.164Z,13.47
2023-04-08T17:52:22.541Z,12.43
2023-04-08T17:54:48.880Z,11.77
2023-04-08T17:57:15.311Z,12.80
2023-04-08T17:59:41.688Z,16.17
2023-04-08T18:02:08.088Z,10.80
2023-04-08T18:04:36.717Z,9.90
2023-04-08T18:07:06.267Z,13.77
2023-04-08T18:09:32.663Z,12.10
2023-04-08T18:11:59.074Z,14.47
2023-04-08T18:14:25.459Z,12.47
2023-04-08T18:16:51.755Z,11.37
2023-04-08T18:19:18.151Z,11.53
2023-04-08T18:21:44.465Z,12.43
2023-04-08T18:24:10.800Z,13.23
2023-04-08T18:26:37.131Z,13.20
2023-04-08T18:29:03.470Z,11.47
2023-04-08T18:31:31.352Z,13.67
2023-04-08T18:33:57.741Z,14.43
2023-04-08T18:36:24.197Z,14.30
2023-04-08T18:38:50.650Z,12.10
2023-04-08T18:41:17.793Z,13.63
2023-04-08T18:43:45.331Z,12.97
2023-04-08T18:46:11.695Z,14.60
2023-04-08T18:48:38.080Z,13.37
2023-04-08T18:51:04.464Z,19.33
2023-04-08T18:53:30.919Z,19.33
2023-04-08T18:55:57.242Z,13.93
2023-04-08T18:58:24.597Z,20.10
2023-04-08T19:00:51.024Z,15.57
2023-04-08T19:03:18.653Z,15.70
2023-04-08T19:05:45.025Z,13.97
2023-04-08T19:08:11.339Z,15.67
2023-04-08T19:10:37.709Z,16.80
2023-04-08T19:13:04.127Z,17.93
2023-04-08T19:15:30.963Z,16.17
2023-04-08T19:17:59.072Z,15.57
2023-04-08T19:20:25.634Z,16.00
2023-04-08T19:22:52.143Z,15.03
2023-04-08T19:25:18.692Z,16.63
2023-04-08T19:27:46.208Z,17.00
2023-04-08T19:30:12.900Z,16.47
2023-04-08T19:32:39.332Z,15.83
2023-04-08T19:35:05.963Z,20.37
2023-04-08T19:37:32.340Z,20.33
2023-04-08T19:39:58.822Z,18.17
2023-04-08T19:42:25.648Z,19.80
2023-04-08T19:44:53.094Z,17.73
2023-04-08T19:47:19.518Z,18.83
2023-04-08T19:49:45.866Z,19.30
2023-04-08T19:52:12.290Z,15.87
2023-04-08T19:54:38.970Z,21.30
2023-04-08T19:57:06.447Z,16.17
2023-04-08T19:59:33.890Z,16.67
2023-04-08T20:02:00.498Z,17.47
2023-04-08T20:04:26.999Z,17.10
2023-04-08T20:06:53.392Z,15.67
2023-04-08T20:09:19.884Z,16.33
2023-04-08T20:11:46.214Z,15.20
2023-04-08T20:14:12.660Z,19.13
2023-04-08T20:16:39.493Z,17.40
2023-04-08T20:19:05.829Z,16.77
2023-04-08T20:21:33.010Z,18.33
2023-04-08T20:23:59.801Z,19.60
2023-04-08T20:26:26.464Z,18.37
2023-04-08T20:28:53.328Z,20.63
2023-04-08T20:31:21.118Z,20.43
2023-04-08T20:33:49.916Z,17.33
2023-04-08T20:36:16.300Z,18.90
2023-04-08T20:38:42.929Z,18.13
2023-04-08T20:41:09.400Z,18.70
2023-04-08T20:43:36.002Z,21.00
2023-04-08T20:46:02.493Z,19.03
2023-04-08T20:48:29.523Z,18.83
2023-04-08T20:50:56.276Z,19.03
2023-04-08T20:53:23.693Z,17.70
2023-04-08T20:55:55.771Z,16.27
2023-04-08T20:58:22.241Z,18.63
2023-04-08T21:00:48.782Z,17.07
2023-04-08T21:03:15.374Z,20.07
2023-04-08T21:05:41.887Z,20.27
2023-04-08T21:08:08.451Z,19.80
2023-04-08T21:10:34.871Z,19.97
2023-04-08T21:13:01.488Z,19.70
2023-04-08T21:15:27.834Z,19.23
2023-04-08T21:17:54.254Z,20.67
2023-04-08T21:20:20.678Z,20.53
2023-04-08T21:22:47.147Z,20.40
2023-04-08T21:25:13.724Z,21.43
2023-04-08T21:27:41.174Z,22.47
2023-04-08T21:30:07.835Z,21.67
2023-04-08T21:32:37.195Z,22.33
2023-04-08T21:35:03.723Z,19.03
2023-04-08T21:37:30.272Z,18.83
2023-04-08T21:39:57.904Z,22.70
2023-04-08T21:42:25.397Z,22.67
2023-04-08T21:44:51.907Z,18.33
2023-04-08T21:47:18.301Z,22.73
2023-04-08T21:49:44.717Z,19.30
2023-04-08T21:52:11.991Z,21.23
2023-04-08T21:54:38.771Z,18.77
2023-04-08T21:57:05.172Z,23.40
2023-04-08T21:59:31.507Z,22.53
2023-04-08T22:01:58.196Z,22.17
2023-04-08T22:04:24.889Z,23.90
2023-04-08T22:06:51.648Z,26.90
2023-04-08T22:09:17.976Z,23.40
2023-04-08T22:11:44.510Z,22.50
2023-04-08T22:14:10.902Z,21.67
2023-04-08T22:16:39.719Z,24.23
2023-04-08T22:19:08.202Z,21.77
2023-04-08T22:21:37.346Z,26.10
2023-04-08T22:24:03.751Z,27.10
2023-04-08T22:26:30.442Z,22.63
2023-04-08T22:28:56.983Z,25.67
2023-04-08T22:31:23.548Z,23.90
2023-04-08T22:33:50.000Z,25.23
2023-04-08T22:36:16.918Z,22.87
2023-04-08T22:38:43.234Z,24.27
2023-04-08T22:41:17.761Z,24.57
2023-04-08T22:43:44.133Z,26.40
2023-04-08T22:46:10.866Z,23.23
2023-04-08T22:48:37.257Z,23.90
2023-04-08T22:51:04.119Z,22.00
2023-04-08T22:53:30.669Z,21.60
2023-04-08T22:55:57.593Z,21.33
2023-04-08T22:58:24.019Z,25.50
2023-04-08T23:00:50.362Z,23.60
2023-04-08T23:03:16.808Z,25.53
2023-04-08T23:05:43.152Z,23.27
2023-04-08T23:08:09.703Z,25.50
2023-04-08T23:10:36.197Z,22.83
2023-04-08T23:13:02.636Z,21.57
2023-04-08T23:15:28.960Z,23.23
2023-04-08T23:17:57.581Z,24.00
2023-04-08T23:20:25.098Z,24.57
2023-04-08T23:22:51.531Z,23.07
2023-04-08T23:25:17.990Z,22.37
2023-04-08T23:27:45.668Z,27.13
2023-04-08T23:30:12.118Z,24.57
2023-04-08T23:32:38.577Z,25.30
2023-04-08T23:35:05.171Z,25.03
2023-04-08T23:37:31.768Z,24.63
2023-04-08T23:39:58.165Z,24.50
2023-04-08T23:42:27.264Z,25.83
2023-04-08T23:44:54.675Z,24.80
2023-04-08T23:47:21.592Z,26.80
2023-04-08T23:49:48.166Z,27.67
2023-04-08T23:52:14.542Z,25.80
2023-04-08T23:54:41.854Z,26.47
2023-04-08T23:57:08.194Z,24.17
2023-04-08T23:59:34.588Z,24.37
